createdAt,value
2022-09-07T00:01:41.419Z,98336.25
2022-09-07T00:04:10.995Z,98332.38
2022-09-07T00:06:39.154Z,98316.66
2022-09-07T00:09:07.603Z,98331.19
2022-09-07T00:11:36.671Z,98326.94
2022-09-07T00:14:05.415Z,98324.81
2022-09-07T00:16:33.618Z,98314.66
2022-09-07T00:19:04.825Z,98304.13
2022-09-07T00:21:34.269Z,98311.09
2022-09-07T00:24:02.353Z,98302.72
2022-09-07T00:26:31.588Z,98304.16
2022-09-07T00:29:00.427Z,98286.06
2022-09-07T00:31:31.700Z,98289.97
2022-09-07T00:34:01.347Z,98290.69
2022-09-07T00:36:29.560Z,98286.69
2022-09-07T00:38:59.439Z,98286.94
2022-09-07T00:41:27.520Z,98279.66
2022-09-07T00:43:56.946Z,98273.75
2022-09-07T00:46:25.900Z,98272.78
2022-09-07T00:48:58.845Z,98257.84
2022-09-07T00:51:28.683Z,98256.78
2022-09-07T00:53:58.842Z,98262.44
2022-09-07T00:56:30.891Z,98264.84
2022-09-07T00:58:59.170Z,98262.38
2022-09-07T01:01:27.716Z,98268.50
2022-09-07T01:03:57.763Z,98259.56
2022-09-07T01:06:27.488Z,98255.75
2022-09-07T01:08:57.541Z,98257.94
2022-09-07T01:11:26.285Z,98247.78
2022-09-07T01:13:58.020Z,98244.97
2022-09-07T01:16:49.450Z,98237.84
2022-09-07T01:19:34.673Z,98244.41
2022-09-07T01:22:13.472Z,98251.88
2022-09-07T01:24:53.572Z,98267.75
2022-09-07T01:27:49.366Z,98270.22
2022-09-07T01:30:20.756Z,98275.22
2022-09-07T01:32:57.658Z,98292.72
2022-09-07T01:35:30.947Z,98296.03
2022-09-07T01:38:05.895Z,98305.06
2022-09-07T01:40:39.164Z,98309.44
2022-09-07T01:43:11.424Z,98313.56
2022-09-07T01:45:41.050Z,98320.38
2022-09-07T01:48:11.441Z,98325.25
2022-09-07T01:50:43.094Z,98318.13
2022-09-07T01:53:15.249Z,98309.56
2022-09-07T01:55:45.066Z,98308.50
2022-09-07T01:58:16.765Z,98310.72
2022-09-07T02:00:47.945Z,98313.16
2022-09-07T02:03:16.859Z,98315.88
2022-09-07T02:05:47.744Z,98316.66
2022-09-07T02:08:18.570Z,98317.16
2022-09-07T02:10:50.523Z,98319.50
2022-09-07T02:13:22.694Z,98325.63
2022-09-07T02:15:52.348Z,98355.75
2022-09-07T02:18:21.698Z,98362.78
2022-09-07T02:20:52.163Z,98382.81
2022-09-07T02:23:22.790Z,98385.00
2022-09-07T02:25:53.599Z,98394.78
2022-09-07T02:28:25.234Z,98408.22
2022-09-07T02:30:56.416Z,98408.81
2022-09-07T02:33:24.962Z,98402.16
2022-09-07T02:35:53.334Z,98385.69
2022-09-07T02:38:21.510Z,98386.47
2022-09-07T02:40:52.050Z,98387.59
2022-09-07T02:43:20.958Z,98394.03
2022-09-07T02:46:03.371Z,98402.34
2022-09-07T02:48:41.545Z,98392.03
2022-09-07T02:51:13.335Z,98393.59
2022-09-07T02:53:49.875Z,98389.84
2022-09-07T02:56:25.315Z,98380.00
2022-09-07T02:59:02.107Z,98380.59
2022-09-07T03:01:36.245Z,98392.50
2022-09-07T03:04:09.089Z,98399.22
2022-09-07T03:06:39.425Z,98406.63
2022-09-07T03:09:09.662Z,98420.59
2022-09-07T03:11:38.190Z,98424.41
2022-09-07T03:14:13.056Z,98421.16
2022-09-07T03:16:42.564Z,98426.63
2022-09-07T03:19:10.700Z,98430.75
2022-09-07T03:21:41.130Z,98435.13
2022-09-07T03:24:11.293Z,98440.56
2022-09-07T03:26:41.405Z,98421.47
2022-09-07T03:29:09.628Z,98417.34
2022-09-07T03:31:37.841Z,98437.00
2022-09-07T03:34:09.407Z,98440.81
2022-09-07T03:36:37.899Z,98443.31
2022-09-07T03:39:07.324Z,98448.50
2022-09-07T03:41:35.701Z,98455.59
2022-09-07T03:44:04.996Z,98456.69
2022-09-07T03:46:33.187Z,98461.63
2022-09-07T03:49:04.127Z,98462.97
2022-09-07T03:51:33.595Z,98458.91
2022-09-07T03:54:01.706Z,98472.00
2022-09-07T03:56:30.188Z,98466.81
2022-09-07T03:58:58.325Z,98450.69
2022-09-07T04:01:27.138Z,98456.13
2022-09-07T04:04:02.644Z,98463.22
2022-09-07T04:06:31.118Z,98459.41
2022-09-07T04:09:03.492Z,98462.94
2022-09-07T04:11:32.306Z,98477.69
2022-09-07T04:14:00.388Z,98473.88
2022-09-07T04:16:29.200Z,98465.69
2022-09-07T04:19:00.324Z,98476.03
2022-09-07T04:21:32.057Z,98470.88
2022-09-07T04:24:00.903Z,98467.59
2022-09-07T04:26:31.514Z,98476.81
2022-09-07T04:29:00.995Z,98479.28
2022-09-07T04:31:31.433Z,98481.53
2022-09-07T04:33:59.585Z,98477.94
2022-09-07T04:36:28.143Z,98475.72
2022-09-07T04:38:59.465Z,98468.59
2022-09-07T04:41:27.942Z,98472.78
2022-09-07T04:43:58.006Z,98480.34
2022-09-07T04:46:27.361Z,98473.28
2022-09-07T04:48:56.431Z,98468.84
2022-09-07T04:51:28.186Z,98475.09
2022-09-07T04:53:57.356Z,98474.00
2022-09-07T04:56:25.903Z,98471.88
2022-09-07T04:58:53.984Z,98488.66
2022-09-07T05:01:24.432Z,98476.75
2022-09-07T05:03:52.933Z,98475.63
2022-09-07T05:06:24.660Z,98490.88
2022-09-07T05:08:54.080Z,98485.25
2022-09-07T05:11:28.452Z,98496.94
2022-09-07T05:13:58.037Z,98497.81
2022-09-07T05:16:27.958Z,98488.84
2022-09-07T05:18:57.596Z,98482.31
2022-09-07T05:21:26.781Z,98489.41
2022-09-07T05:23:56.059Z,98474.63
2022-09-07T05:26:25.541Z,98471.66
2022-09-07T05:31:43.161Z,98487.81
2022-09-07T05:36:59.582Z,98500.09
2022-09-07T05:39:28.195Z,98497.44
2022-09-07T05:41:56.788Z,98480.47
2022-09-07T05:47:14.511Z,98494.41
2022-09-07T05:49:42.642Z,98496.59
2022-09-07T05:52:10.794Z,98483.97
2022-09-07T05:54:39.279Z,98484.56
2022-09-07T05:57:07.882Z,98483.97
2022-09-07T05:59:36.123Z,98473.94
2022-09-07T06:02:07.114Z,98386.44
2022-09-07T06:04:36.761Z,98329.44
2022-09-07T06:07:21.102Z,98354.50
2022-09-07T06:12:48.485Z,98347.78
2022-09-07T06:15:17.708Z,98357.25
2022-09-07T06:17:45.820Z,98384.31
2022-09-07T06:20:15.422Z,98397.31
2022-09-07T06:22:43.538Z,98411.88
2022-09-07T06:25:13.761Z,98443.19
2022-09-07T06:27:41.878Z,98441.13
2022-09-07T06:30:10.618Z,98422.94
2022-09-07T06:35:10.644Z,98438.94
2022-09-07T06:37:42.286Z,98430.16
2022-09-07T06:40:11.540Z,98440.03
2022-09-07T06:42:39.782Z,98439.41
2022-09-07T06:45:11.230Z,98454.84
2022-09-07T06:47:39.940Z,98468.28
2022-09-07T06:50:12.390Z,98460.19
2022-09-07T06:55:30.134Z,98465.09
2022-09-07T06:57:58.216Z,98464.56
2022-09-07T07:00:26.358Z,98465.69
2022-09-07T07:02:54.505Z,98468.34
2022-09-07T07:05:22.642Z,98450.38
2022-09-07T07:07:52.115Z,98456.06
2022-09-07T07:10:24.597Z,98461.94
2022-09-07T07:12:57.065Z,98463.97
2022-09-07T07:15:27.350Z,98460.56
2022-09-07T07:17:59.131Z,98431.34
2022-09-07T07:20:33.471Z,98431.00
2022-09-07T07:23:05.663Z,98429.50
2022-09-07T07:25:35.314Z,98433.44
2022-09-07T07:30:56.003Z,98410.25
2022-09-07T07:33:24.192Z,98411.38
2022-09-07T07:35:52.281Z,98424.31
2022-09-07T07:44:00.661Z,98423.28
2022-09-07T07:46:30.265Z,98423.41
2022-09-07T07:48:58.621Z,98436.06
2022-09-07T07:51:27.052Z,98434.47
2022-09-07T07:53:57.683Z,98426.72
2022-09-07T07:56:25.978Z,98429.66
2022-09-07T07:58:54.704Z,98428.81
2022-09-07T08:01:22.820Z,98425.88
2022-09-07T08:03:51.864Z,98437.31
2022-09-07T08:06:21.138Z,98438.66
2022-09-07T08:08:49.491Z,98434.88
2022-09-07T08:11:19.883Z,98431.91
2022-09-07T08:13:49.488Z,98428.34
2022-09-07T08:16:18.415Z,98441.91
2022-09-07T08:18:47.244Z,98434.59
2022-09-07T08:21:16.330Z,98431.09
2022-09-07T08:23:44.369Z,98432.53
2022-09-07T08:26:12.637Z,98429.00
2022-09-07T08:28:43.822Z,98432.16
2022-09-07T08:31:12.822Z,98432.44
2022-09-07T08:33:41.078Z,98428.19
2022-09-07T08:36:11.316Z,98429.13
2022-09-07T08:38:39.319Z,98419.88
2022-09-07T08:41:22.639Z,98419.81
2022-09-07T08:43:54.458Z,98415.13
2022-09-07T08:46:29.594Z,98425.44
2022-09-07T08:48:59.636Z,98425.47
2022-09-07T08:51:34.783Z,98421.00
2022-09-07T08:54:03.099Z,98422.75
2022-09-07T08:56:36.607Z,98409.97
2022-09-07T08:59:14.919Z,98415.34
2022-09-07T09:02:26.577Z,98424.78
2022-09-07T09:04:32.872Z,98424.59
2022-09-07T09:07:07.390Z,98419.91
2022-09-07T09:09:45.398Z,98422.50
2022-09-07T09:12:18.585Z,98411.16
2022-09-07T09:14:56.843Z,98405.56
2022-09-07T09:17:29.395Z,98406.28
2022-09-07T09:20:05.179Z,98395.03
2022-09-07T09:22:33.154Z,98400.78
2022-09-07T09:25:05.792Z,98404.44
2022-09-07T09:27:33.806Z,98401.03
2022-09-07T09:30:03.119Z,98392.28
2022-09-07T09:32:35.649Z,98394.22
2022-09-07T09:35:05.996Z,98398.09
2022-09-07T09:37:34.915Z,98389.78
2022-09-07T09:40:03.348Z,98396.03
2022-09-07T09:42:33.738Z,98388.25
2022-09-07T09:45:15.491Z,98387.97
2022-09-07T09:47:49.859Z,98381.66
2022-09-07T09:53:23.844Z,98369.34
2022-09-07T09:55:52.960Z,98366.06
2022-09-07T10:01:25.384Z,98371.59
2022-09-07T10:06:28.037Z,98366.56
2022-09-07T10:08:57.836Z,98353.06
2022-09-07T10:14:30.880Z,98343.94
2022-09-07T10:17:02.042Z,98344.41
2022-09-07T10:19:34.866Z,98349.94
2022-09-07T10:22:03.971Z,98345.22
2022-09-07T10:24:38.758Z,98334.31
2022-09-07T10:27:20.345Z,98332.66
2022-09-07T10:29:48.933Z,98330.44
2022-09-07T10:32:24.929Z,98340.03
2022-09-07T10:35:02.757Z,98329.78
2022-09-07T10:37:37.311Z,98320.72
2022-09-07T10:40:17.205Z,98322.63
2022-09-07T10:45:41.476Z,98311.06
2022-09-07T10:48:15.696Z,98326.81
2022-09-07T10:50:47.586Z,98317.88
2022-09-07T10:53:40.699Z,98308.03
2022-09-07T10:56:11.409Z,98315.78
2022-09-07T10:59:07.891Z,98313.56
2022-09-07T11:01:44.867Z,98302.34
2022-09-07T11:04:40.163Z,98300.44
2022-09-07T11:07:18.138Z,98299.41
2022-09-07T11:09:56.503Z,98295.00
2022-09-07T11:12:28.865Z,98294.81
2022-09-07T11:15:03.363Z,98289.84
2022-09-07T11:17:31.777Z,98278.84
2022-09-07T11:20:04.396Z,98272.19
2022-09-07T11:22:36.193Z,98275.41
2022-09-07T11:27:58.720Z,98271.78
2022-09-07T11:30:28.448Z,98282.19
2022-09-07T11:33:00.615Z,98282.06
2022-09-07T11:35:37.891Z,98282.06
2022-09-07T11:38:14.132Z,98279.66
2022-09-07T11:40:45.540Z,98288.97
2022-09-07T11:43:17.300Z,98278.22
2022-09-07T11:45:49.102Z,98270.09
2022-09-07T11:48:19.868Z,98273.63
2022-09-07T11:50:50.212Z,98264.56
2022-09-07T11:53:21.762Z,98267.38
2022-09-07T11:55:55.135Z,98252.78
2022-09-07T11:58:33.087Z,98251.78
2022-09-07T12:01:09.420Z,98257.66
2022-09-07T12:03:57.130Z,98258.81
2022-09-07T12:06:41.006Z,98258.88
2022-09-07T12:09:21.605Z,98248.59
2022-09-07T12:12:04.379Z,98255.44
2022-09-07T12:14:38.878Z,98258.53
2022-09-07T12:17:15.973Z,98254.31
2022-09-07T12:19:46.117Z,98259.00
2022-09-07T12:22:21.173Z,98260.94
2022-09-07T12:24:52.374Z,98251.66
2022-09-07T12:27:41.791Z,98258.41
2022-09-07T12:30:29.086Z,98252.56
2022-09-07T12:33:06.676Z,98248.13
2022-09-07T12:35:40.203Z,98240.81
2022-09-07T12:38:24.065Z,98245.66
2022-09-07T12:41:02.759Z,98239.31
2022-09-07T12:43:35.278Z,98231.09
2022-09-07T12:46:03.701Z,98235.22
2022-09-07T12:48:37.161Z,98234.59
2022-09-07T12:51:09.522Z,98244.84
2022-09-07T12:53:41.996Z,98235.81
2022-09-07T12:56:22.787Z,98232.25
2022-09-07T12:59:04.015Z,98240.47
2022-09-07T13:01:37.144Z,98238.50
2022-09-07T13:04:18.752Z,98239.66
2022-09-07T13:07:19.815Z,98226.22
2022-09-07T13:09:56.195Z,98224.31
2022-09-07T13:15:33.203Z,98216.84
2022-09-07T13:18:02.550Z,98208.47
2022-09-07T13:20:39.153Z,98207.97
2022-09-07T13:23:23.598Z,98205.97
2022-09-07T13:25:55.835Z,98206.28
2022-09-07T13:28:29.338Z,98203.88
2022-09-07T13:31:02.804Z,98198.69
2022-09-07T13:33:44.730Z,98194.34
2022-09-07T13:36:25.482Z,98195.56
2022-09-07T13:38:54.390Z,98193.03
2022-09-07T13:41:23.747Z,98191.41
2022-09-07T13:43:58.599Z,98184.19
2022-09-07T13:46:36.987Z,98185.41
2022-09-07T13:49:09.813Z,98195.91
2022-09-07T13:51:40.859Z,98195.38
2022-09-07T13:54:18.327Z,98185.97
2022-09-07T13:56:48.773Z,98192.53
2022-09-07T13:59:21.998Z,98188.94
2022-09-07T14:01:50.712Z,98184.88
2022-09-07T14:04:23.761Z,98179.31
2022-09-07T14:06:52.027Z,98181.78
2022-09-07T14:09:22.236Z,98179.44
2022-09-07T14:11:51.345Z,98168.38
2022-09-07T14:14:23.655Z,98186.47
2022-09-07T14:17:02.330Z,98170.16
2022-09-07T14:19:35.099Z,98171.22
2022-09-07T14:22:06.970Z,98172.59
2022-09-07T14:24:36.132Z,98170.75
2022-09-07T14:27:05.177Z,98171.56
2022-09-07T14:29:35.679Z,98178.22
2022-09-07T14:32:04.824Z,98177.25
2022-09-07T14:34:34.952Z,98172.59
2022-09-07T14:37:05.056Z,98171.44
2022-09-07T14:39:37.390Z,98169.91
2022-09-07T14:42:05.643Z,98167.66
2022-09-07T14:44:36.723Z,98164.44
2022-09-07T14:47:07.611Z,98159.94
2022-09-07T14:49:35.839Z,98157.75
2022-09-07T14:52:04.420Z,98158.34
2022-09-07T14:54:33.963Z,98152.84
2022-09-07T14:57:04.672Z,98152.06
2022-09-07T14:59:38.689Z,98161.75
2022-09-07T15:02:28.359Z,98155.03
2022-09-07T15:05:15.283Z,98150.59
2022-09-07T15:07:46.973Z,98145.25
2022-09-07T15:10:15.567Z,98136.03
2022-09-07T15:12:44.110Z,98149.38
2022-09-07T15:15:21.803Z,98138.09
2022-09-07T15:17:50.185Z,98132.19
2022-09-07T15:20:35.492Z,98134.75
2022-09-07T15:23:04.296Z,98130.91
2022-09-07T15:25:32.521Z,98128.59
2022-09-07T15:28:00.546Z,98132.53
2022-09-07T15:30:30.330Z,98125.38
2022-09-07T15:32:58.493Z,98128.13
2022-09-07T15:35:26.764Z,98120.41
2022-09-07T15:38:04.690Z,98113.44
2022-09-07T15:40:47.470Z,98110.03
2022-09-07T15:43:25.252Z,98122.94
2022-09-07T15:45:56.983Z,98129.84
2022-09-07T15:48:25.935Z,98128.94
2022-09-07T15:51:01.454Z,98124.63
2022-09-07T15:56:22.320Z,98121.31
2022-09-07T15:58:52.415Z,98117.53
2022-09-07T16:04:13.489Z,98096.63
2022-09-07T16:06:42.072Z,98100.59
2022-09-07T16:09:10.090Z,98093.72
2022-09-07T16:11:40.523Z,98097.47
2022-09-07T16:14:11.601Z,98085.88
2022-09-07T16:19:29.013Z,98107.44
2022-09-07T16:21:57.586Z,98101.09
2022-09-07T16:24:28.306Z,98106.94
2022-09-07T16:26:58.920Z,98103.75
2022-09-07T16:29:27.162Z,98114.22
2022-09-07T16:34:46.644Z,98118.41
2022-09-07T16:37:15.720Z,98098.09
2022-09-07T16:39:43.782Z,98104.38
2022-09-07T16:42:14.180Z,98104.16
2022-09-07T16:44:42.212Z,98105.78
2022-09-07T16:47:12.690Z,98099.69
2022-09-07T16:49:40.702Z,98092.41
2022-09-07T16:52:11.098Z,98087.53
2022-09-07T16:54:39.082Z,98092.03
2022-09-07T16:57:07.028Z,98084.88
2022-09-07T16:59:34.997Z,98088.22
2022-09-07T17:02:02.989Z,98094.13
2022-09-07T17:04:32.478Z,98093.50
2022-09-07T17:07:00.532Z,98087.81
2022-09-07T17:09:28.601Z,98090.13
2022-09-07T17:11:56.740Z,98085.47
2022-09-07T17:14:24.732Z,98091.19
2022-09-07T17:16:52.756Z,98098.38
2022-09-07T17:19:29.477Z,98098.81
2022-09-07T17:21:59.914Z,98092.47
2022-09-07T17:24:27.974Z,98084.06
2022-09-07T17:26:55.973Z,98079.00
2022-09-07T17:29:23.970Z,98076.41
2022-09-07T17:34:40.119Z,98090.50
2022-09-07T17:37:10.104Z,98108.19
2022-09-07T17:39:38.809Z,98107.22
2022-09-07T17:42:07.455Z,98115.06
2022-09-07T17:44:38.073Z,98123.41
2022-09-07T17:47:06.857Z,98124.16
2022-09-07T17:49:35.077Z,98129.94
2022-09-07T17:52:03.326Z,98137.13
2022-09-07T17:54:32.880Z,98130.44
2022-09-07T17:57:00.884Z,98135.78
2022-09-07T18:02:17.214Z,98154.66
2022-09-07T18:04:45.519Z,98158.25
2022-09-07T18:07:13.589Z,98162.88
2022-09-07T18:09:43.083Z,98175.75
2022-09-07T18:12:11.270Z,98182.66
2022-09-07T18:14:39.339Z,98180.88
2022-09-07T18:17:07.406Z,98160.09
2022-09-07T18:19:38.583Z,98144.72
2022-09-07T18:22:08.573Z,98112.78
2022-09-07T18:24:37.156Z,98093.50
2022-09-07T18:27:07.745Z,98094.75
2022-09-07T18:29:35.799Z,98131.69
2022-09-07T18:32:08.290Z,98151.66
2022-09-07T18:34:37.231Z,98182.50
2022-09-07T18:37:05.365Z,98191.41
2022-09-07T18:39:33.504Z,98185.78
2022-09-07T18:42:01.784Z,98196.97
2022-09-07T18:47:27.583Z,98169.78
2022-09-07T18:49:56.969Z,98166.97
2022-09-07T18:55:13.611Z,98187.16
2022-09-07T18:57:41.599Z,98192.25
2022-09-07T19:00:14.939Z,98191.16
2022-09-07T19:02:42.951Z,98180.03
2022-09-07T19:07:59.612Z,98151.13
2022-09-07T19:10:27.730Z,98147.28
2022-09-07T19:12:58.072Z,98151.31
2022-09-07T19:15:32.255Z,98169.22
2022-09-07T19:18:04.500Z,98190.63
2022-09-07T19:20:33.898Z,98172.25
2022-09-07T19:23:02.628Z,98147.50
2022-09-07T19:25:30.577Z,98141.38
2022-09-07T19:28:00.921Z,98139.81
2022-09-07T19:30:30.900Z,98126.97
2022-09-07T19:33:03.960Z,98127.69
2022-09-07T19:35:35.608Z,98129.34
2022-09-07T19:38:03.600Z,98131.50
2022-09-07T19:40:31.597Z,98158.47
2022-09-07T19:42:59.640Z,98146.13
2022-09-07T19:45:28.341Z,98129.63
2022-09-07T19:47:57.692Z,98134.44
2022-09-07T19:50:26.023Z,98135.13
2022-09-07T19:52:56.154Z,98131.34
2022-09-07T19:55:26.556Z,98119.50
2022-09-07T19:57:54.568Z,98129.31
2022-09-07T20:00:23.042Z,98128.50
2022-09-07T20:02:52.216Z,98124.16
2022-09-07T20:05:21.794Z,98121.03
2022-09-07T20:07:49.912Z,98120.78
2022-09-07T20:10:18.152Z,98126.50
2022-09-07T20:12:46.175Z,98100.66
2022-09-07T20:15:14.426Z,98081.81
2022-09-07T20:17:42.522Z,98088.53
2022-09-07T20:20:10.985Z,98074.94
2022-09-07T20:22:42.639Z,98055.31
2022-09-07T20:25:13.257Z,98054.94
2022-09-07T20:27:41.679Z,98069.66
2022-09-07T20:30:10.216Z,98083.69
2022-09-07T20:32:38.227Z,98084.44
2022-09-07T20:35:06.534Z,98081.69
2022-09-07T20:37:34.711Z,98097.38
2022-09-07T20:40:05.815Z,98098.72
2022-09-07T20:42:33.852Z,98110.47
2022-09-07T20:45:04.171Z,98113.13
2022-09-07T20:47:32.248Z,98106.88
2022-09-07T20:50:00.292Z,98099.13
2022-09-07T20:52:28.336Z,98091.94
2022-09-07T20:54:56.358Z,98091.31
2022-09-07T20:57:25.784Z,98103.56
2022-09-07T20:59:53.804Z,98105.22
2022-09-07T21:02:21.878Z,98093.81
2022-09-07T21:04:49.951Z,98098.03
2022-09-07T21:07:17.956Z,98102.97
2022-09-07T21:09:45.983Z,98100.81
2022-09-07T21:12:14.001Z,98104.63
2022-09-07T21:14:45.452Z,98097.25
2022-09-07T21:17:13.492Z,98098.38
2022-09-07T21:19:41.462Z,98094.91
2022-09-07T21:22:09.457Z,98087.38
2022-09-07T21:24:39.861Z,98108.47
2022-09-07T21:27:10.205Z,98114.44
2022-09-07T21:29:40.296Z,98118.34
2022-09-07T21:32:12.190Z,98120.03
2022-09-07T21:34:40.149Z,98121.84
2022-09-07T21:37:08.154Z,98124.56
2022-09-07T21:39:36.165Z,98130.59
2022-09-07T21:42:04.423Z,98131.13
2022-09-07T21:44:32.399Z,98126.09
2022-09-07T21:47:02.621Z,98118.38
2022-09-07T21:49:32.052Z,98097.88
2022-09-07T21:51:59.974Z,98096.53
2022-09-07T21:54:27.938Z,98091.06
2022-09-07T21:56:58.024Z,98091.13
2022-09-07T22:02:38.941Z,98065.28
2022-09-07T22:05:07.666Z,98068.38
2022-09-07T22:07:38.086Z,98071.00
2022-09-07T22:10:08.186Z,98072.53
2022-09-07T22:12:36.242Z,98069.59
2022-09-07T22:15:05.089Z,98068.50
2022-09-07T22:17:33.072Z,98061.25
2022-09-07T22:20:02.499Z,98073.44
2022-09-07T22:22:30.530Z,98080.13
2022-09-07T22:24:58.511Z,98069.75
2022-09-07T22:27:26.478Z,98071.56
2022-09-07T22:29:54.638Z,98059.56
2022-09-07T22:32:22.755Z,98050.28
2022-09-07T22:34:51.591Z,98051.63
2022-09-07T22:37:21.239Z,98055.72
2022-09-07T22:39:49.328Z,98064.69
2022-09-07T22:42:17.347Z,98068.06
2022-09-07T22:44:45.319Z,98062.53
2022-09-07T22:47:13.500Z,98057.00
2022-09-07T22:49:43.906Z,98046.22
2022-09-07T22:52:14.031Z,98032.88
2022-09-07T22:54:45.724Z,98029.97
2022-09-07T22:57:13.771Z,98026.78
2022-09-07T22:59:41.734Z,98038.78
2022-09-07T23:02:09.773Z,98044.41
2022-09-07T23:04:37.854Z,98034.63
2022-09-07T23:07:07.583Z,98039.19
2022-09-07T23:09:35.590Z,98052.13
2022-09-07T23:12:07.494Z,98050.50
2022-09-07T23:14:36.014Z,98052.13
2022-09-07T23:17:04.397Z,98050.13
2022-09-07T23:19:32.411Z,98067.09
2022-09-07T23:22:00.729Z,98062.78
2022-09-07T23:24:28.902Z,98055.47
2022-09-07T23:26:56.935Z,98065.88
2022-09-07T23:29:26.665Z,98055.50
2022-09-07T23:31:55.211Z,98056.19
2022-09-07T23:34:23.309Z,98057.06
2022-09-07T23:36:51.794Z,98046.94
2022-09-07T23:39:19.769Z,98042.78
2022-09-07T23:41:47.795Z,98041.84
2022-09-07T23:44:16.004Z,98040.84
2022-09-07T23:46:45.682Z,98038.75
2022-09-07T23:49:13.811Z,98056.22
2022-09-07T23:51:41.871Z,98050.59
2022-09-07T23:54:10.064Z,98029.41
2022-09-07T23:56:40.157Z,98026.06
2022-09-07T23:59:09.769Z,98035.09
